createdAt,value
2019-05-02T00:02:28.916Z,9.90
2019-05-02T00:04:57.609Z,9.80
2019-05-02T00:07:27.507Z,9.80
2019-05-02T00:09:58.212Z,9.80
2019-05-02T00:12:32.042Z,9.70
2019-05-02T00:15:11.124Z,9.80
2019-05-02T00:17:44.304Z,9.70
2019-05-02T00:20:21.309Z,9.60
2019-05-02T00:22:52.212Z,9.60
2019-05-02T00:25:22.982Z,9.60
2019-05-02T00:27:53.864Z,9.60
2019-05-02T00:30:24.458Z,9.60
2019-05-02T00:32:58.253Z,9.60
2019-05-02T00:35:26.923Z,9.50
2019-05-02T00:38:02.453Z,9.50
2019-05-02T00:40:30.975Z,9.50
2019-05-02T00:43:00.751Z,9.50
2019-05-02T00:45:30.655Z,9.40
2019-05-02T00:48:05.352Z,9.40
2019-05-02T00:50:40.564Z,9.40
2019-05-02T00:53:12.189Z,9.30
2019-05-02T00:55:42.982Z,9.30
2019-05-02T00:58:13.262Z,9.20
2019-05-02T01:01:05.500Z,9.20
2019-05-02T01:03:37.136Z,9.20
2019-05-02T01:06:13.742Z,9.20
2019-05-02T01:08:38.628Z,9.10
2019-05-02T01:11:08.841Z,9.10
2019-05-02T01:13:38.669Z,9.10
2019-05-02T01:16:09.648Z,9.10
2019-05-02T01:18:41.318Z,9.20
2019-05-02T01:21:11.040Z,9.20
2019-05-02T01:23:41.151Z,9.20
2019-05-02T01:26:14.615Z,9.20
2019-05-02T01:29:07.772Z,9.20
2019-05-02T01:31:56.031Z,9.10
2019-05-02T01:34:54.341Z,9.10
2019-05-02T01:37:31.690Z,9.20
2019-05-02T01:40:02.230Z,9.10
2019-05-02T01:42:39.607Z,9.10
2019-05-02T01:45:06.756Z,9.10
2019-05-02T01:47:35.852Z,9.10
2019-05-02T01:50:06.258Z,9.00
2019-05-02T01:52:36.174Z,9.00
2019-05-02T01:55:06.520Z,8.90
2019-05-02T01:57:39.885Z,9.00
2019-05-02T02:00:11.475Z,8.90
2019-05-02T02:02:41.396Z,8.90
2019-05-02T02:05:11.866Z,8.90
2019-05-02T02:07:42.197Z,8.90
2019-05-02T02:10:15.026Z,8.90
2019-05-02T02:13:02.732Z,8.90
2019-05-02T02:15:15.335Z,8.80
2019-05-02T02:17:46.769Z,8.80
2019-05-02T02:20:18.595Z,8.80
2019-05-02T02:23:14.104Z,8.70
2019-05-02T02:26:12.190Z,8.70
2019-05-02T02:28:41.978Z,8.70
2019-05-02T02:31:14.292Z,8.70
2019-05-02T02:33:49.693Z,8.70
2019-05-02T02:36:29.948Z,8.70
2019-05-02T02:38:50.888Z,8.80
2019-05-02T02:41:20.812Z,8.70
2019-05-02T02:44:24.891Z,8.70
2019-05-02T02:46:59.100Z,8.70
2019-05-02T02:49:28.983Z,8.70
2019-05-02T02:52:04.861Z,8.80
2019-05-02T02:54:30.321Z,8.80
2019-05-02T02:57:00.243Z,8.70
2019-05-02T02:59:30.105Z,8.80
2019-05-02T03:02:08.714Z,8.80
2019-05-02T03:04:31.589Z,8.80
2019-05-02T03:07:01.601Z,8.80
2019-05-02T03:09:31.482Z,8.80
2019-05-02T03:12:18.971Z,8.80
2019-05-02T03:14:53.412Z,8.80
2019-05-02T03:17:26.668Z,8.80
2019-05-02T03:20:01.112Z,8.70
2019-05-02T03:22:26.636Z,8.80
2019-05-02T03:24:58.787Z,8.80
2019-05-02T03:27:30.009Z,8.80
2019-05-02T03:30:00.490Z,8.80
2019-05-02T03:32:35.320Z,8.80
2019-05-02T03:35:04.291Z,8.80
2019-05-02T03:37:34.464Z,8.90
2019-05-02T03:40:05.040Z,8.90
2019-05-02T03:42:43.822Z,8.90
2019-05-02T03:45:06.870Z,9.00
2019-05-02T03:47:43.785Z,9.00
2019-05-02T03:50:12.950Z,9.10
2019-05-02T03:52:46.475Z,9.10
2019-05-02T03:55:23.898Z,9.20
2019-05-02T03:57:50.559Z,9.20
2019-05-02T04:00:23.771Z,9.30
2019-05-02T04:02:58.919Z,9.30
2019-05-02T04:05:24.241Z,9.30
2019-05-02T04:07:55.341Z,9.30
2019-05-02T04:11:21.040Z,9.30
2019-05-02T04:13:53.869Z,9.30
2019-05-02T04:16:28.597Z,9.30
2019-05-02T04:19:06.288Z,9.30
2019-05-02T04:21:39.104Z,9.30
2019-05-02T04:24:15.702Z,9.30
2019-05-02T04:26:52.572Z,9.30
2019-05-02T04:29:16.188Z,9.40
2019-05-02T04:31:46.059Z,9.40
2019-05-02T04:34:17.868Z,9.40
2019-05-02T04:36:59.857Z,9.30
2019-05-02T04:39:21.659Z,9.40
2019-05-02T04:41:51.131Z,9.40
2019-05-02T04:44:20.931Z,9.40
2019-05-02T04:46:51.813Z,9.40
2019-05-02T04:49:32.864Z,9.30
2019-05-02T04:52:04.448Z,9.30
2019-05-02T04:54:32.191Z,9.40
2019-05-02T04:57:02.805Z,9.50
2019-05-02T04:59:34.015Z,9.50
2019-05-02T05:02:08.688Z,9.40
2019-05-02T05:04:41.936Z,9.40
2019-05-02T05:07:11.869Z,9.40
2019-05-02T05:09:47.841Z,9.50
2019-05-02T05:12:14.662Z,9.60
2019-05-02T05:14:44.435Z,9.60
2019-05-02T05:17:17.373Z,9.50
2019-05-02T05:19:49.355Z,9.50
2019-05-02T05:22:19.138Z,9.60
2019-05-02T05:25:00.116Z,9.60
2019-05-02T05:27:33.179Z,9.70
2019-05-02T05:30:10.687Z,9.70
2019-05-02T05:32:37.492Z,9.70
2019-05-02T05:35:09.064Z,9.70
2019-05-02T05:37:43.306Z,9.80
2019-05-02T05:40:10.315Z,9.80
2019-05-02T05:42:40.580Z,9.80
2019-05-02T05:45:13.786Z,9.80
2019-05-02T05:47:47.947Z,9.80
2019-05-02T05:50:18.178Z,9.90
2019-05-02T05:52:48.258Z,10.10
2019-05-02T05:55:23.990Z,10.00
2019-05-02T05:57:59.681Z,10.00
2019-05-02T06:00:23.494Z,10.00
2019-05-02T06:03:01.204Z,10.00
2019-05-02T06:05:27.661Z,10.00
2019-05-02T06:08:04.717Z,10.00
2019-05-02T06:10:39.082Z,10.10
2019-05-02T06:13:10.875Z,10.20
2019-05-02T06:15:41.348Z,10.10
2019-05-02T06:18:11.675Z,10.00
2019-05-02T06:20:41.941Z,9.90
2019-05-02T06:23:13.283Z,10.00
2019-05-02T06:25:43.420Z,10.00
2019-05-02T06:28:36.367Z,10.00
2019-05-02T06:31:16.717Z,10.10
2019-05-02T06:33:46.135Z,10.10
2019-05-02T06:36:16.543Z,10.20
2019-05-02T06:38:46.917Z,10.10
2019-05-02T06:41:20.936Z,10.10
2019-05-02T06:43:50.795Z,10.30
2019-05-02T06:46:21.667Z,10.30
2019-05-02T06:48:53.673Z,10.40
2019-05-02T06:51:24.542Z,10.40
2019-05-02T06:53:54.770Z,10.40
2019-05-02T06:56:28.423Z,10.40
2019-05-02T06:59:08.218Z,10.60
2019-05-02T07:01:40.548Z,10.60
2019-05-02T07:04:10.434Z,10.60
2019-05-02T07:06:55.915Z,10.70
2019-05-02T07:09:15.664Z,10.60
2019-05-02T07:11:56.648Z,10.50
2019-05-02T07:14:18.547Z,10.60
2019-05-02T07:16:56.912Z,10.80
2019-05-02T07:19:36.852Z,10.80
2019-05-02T07:22:07.301Z,10.90
2019-05-02T07:24:41.890Z,11.00
2019-05-02T07:27:13.184Z,11.00
2019-05-02T07:29:44.576Z,11.00
2019-05-02T07:32:19.319Z,10.80
2019-05-02T07:34:52.643Z,10.80
2019-05-02T07:37:23.083Z,10.80
2019-05-02T07:39:53.608Z,11.00
2019-05-02T07:42:27.859Z,10.90
2019-05-02T07:44:58.029Z,10.80
2019-05-02T07:47:28.928Z,10.90
2019-05-02T07:49:59.310Z,11.00
2019-05-02T07:52:33.647Z,11.00
2019-05-02T07:55:07.410Z,11.10
2019-05-02T07:57:37.393Z,11.30
2019-05-02T08:00:08.863Z,11.20
2019-05-02T08:02:45.855Z,11.30
2019-05-02T08:05:21.670Z,11.40
2019-05-02T08:07:53.288Z,11.60
2019-05-02T08:10:23.707Z,11.60
2019-05-02T08:12:52.959Z,11.70
2019-05-02T08:15:24.730Z,11.70
2019-05-02T08:17:57.859Z,11.50
2019-05-02T08:20:27.987Z,11.50
2019-05-02T08:22:58.226Z,11.60
2019-05-02T08:25:28.274Z,11.90
2019-05-02T08:28:10.190Z,12.10
2019-05-02T08:30:44.041Z,12.20
2019-05-02T08:33:13.589Z,12.10
2019-05-02T08:35:45.254Z,12.20
2019-05-02T08:38:31.616Z,12.20
2019-05-02T08:41:02.639Z,12.20
2019-05-02T08:43:33.343Z,12.10
2019-05-02T08:46:09.392Z,12.30
2019-05-02T08:48:41.994Z,12.40
2019-05-02T08:51:12.306Z,12.50
2019-05-02T08:53:43.071Z,12.50
2019-05-02T08:56:16.011Z,13.00
2019-05-02T08:58:49.807Z,13.60
2019-05-02T09:01:34.541Z,14.90
2019-05-02T09:03:57.031Z,15.70
2019-05-02T09:06:27.300Z,16.80
2019-05-02T09:09:01.246Z,15.90
2019-05-02T09:11:35.018Z,15.90
2019-05-02T09:14:12.546Z,15.90
2019-05-02T09:16:44.581Z,16.30
2019-05-02T09:19:21.446Z,16.30
2019-05-02T09:21:52.565Z,15.20
2019-05-02T09:24:23.882Z,14.60
2019-05-02T09:26:55.801Z,14.50
2019-05-02T09:29:26.409Z,14.70
2019-05-02T09:31:56.447Z,14.90
2019-05-02T09:34:27.362Z,14.70
2019-05-02T09:36:57.519Z,15.60
2019-05-02T09:39:37.875Z,16.60
2019-05-02T09:42:19.071Z,16.30
2019-05-02T09:44:55.413Z,16.40
2019-05-02T09:47:27.344Z,17.10
2019-05-02T09:50:13.111Z,17.60
2019-05-02T09:52:46.257Z,18.50
2019-05-02T09:55:19.909Z,18.50
2019-05-02T09:57:53.382Z,18.50
2019-05-02T10:00:46.991Z,17.70
2019-05-02T10:03:23.166Z,16.90
2019-05-02T10:06:03.127Z,16.60
2019-05-02T10:08:33.720Z,16.40
2019-05-02T10:11:07.818Z,16.80
2019-05-02T10:13:38.120Z,17.70
2019-05-02T10:16:17.937Z,19.10
2019-05-02T10:18:46.177Z,19.80
2019-05-02T10:21:17.419Z,19.00
2019-05-02T10:23:59.124Z,19.10
2019-05-02T10:26:27.816Z,19.50
2019-05-02T10:29:02.053Z,19.60
2019-05-02T10:31:37.633Z,18.30
2019-05-02T10:34:08.473Z,17.90
2019-05-02T10:36:39.086Z,18.00
2019-05-02T10:39:09.288Z,18.60
2019-05-02T10:41:40.991Z,19.20
2019-05-02T10:44:12.855Z,19.70
2019-05-02T10:47:03.522Z,20.10
2019-05-02T10:49:44.299Z,20.70
2019-05-02T10:52:16.724Z,21.80
2019-05-02T10:54:47.428Z,22.20
2019-05-02T10:57:17.560Z,22.80
2019-05-02T10:59:48.044Z,23.60
2019-05-02T11:02:41.880Z,23.00
2019-05-02T11:05:22.513Z,21.40
2019-05-02T11:07:52.152Z,20.10
2019-05-02T11:10:23.441Z,19.20
2019-05-02T11:13:04.891Z,18.60
2019-05-02T11:16:04.061Z,18.50
2019-05-02T11:18:52.463Z,19.20
2019-05-02T11:21:25.760Z,19.80
2019-05-02T11:23:56.533Z,20.10
2019-05-02T11:26:32.483Z,19.40
2019-05-02T11:29:06.219Z,19.10
2019-05-02T11:31:38.963Z,19.10
2019-05-02T11:34:12.264Z,18.60
2019-05-02T11:36:42.485Z,18.10
2019-05-02T11:39:20.530Z,18.60
2019-05-02T11:41:50.161Z,18.60
2019-05-02T11:44:22.473Z,19.20
2019-05-02T11:47:01.973Z,19.40
2019-05-02T11:49:32.230Z,20.50
2019-05-02T11:52:20.217Z,20.60
2019-05-02T11:54:55.449Z,20.60
2019-05-02T11:57:31.217Z,21.60
2019-05-02T12:00:07.025Z,21.60
2019-05-02T12:02:58.328Z,21.40
2019-05-02T12:05:39.245Z,21.20
2019-05-02T12:08:12.147Z,20.80
2019-05-02T12:10:45.512Z,20.10
2019-05-02T12:13:17.452Z,20.00
2019-05-02T12:15:52.059Z,19.70
2019-05-02T12:18:33.300Z,19.70
2019-05-02T12:21:06.879Z,19.60
2019-05-02T12:23:43.241Z,19.20
2019-05-02T12:26:13.666Z,18.90
2019-05-02T12:28:52.432Z,18.50
2019-05-02T12:31:34.083Z,18.70
2019-05-02T12:34:06.245Z,18.90
2019-05-02T12:36:39.303Z,19.30
2019-05-02T12:39:12.691Z,19.60
2019-05-02T12:41:54.605Z,19.70
2019-05-02T12:44:35.953Z,19.60
2019-05-02T12:47:09.486Z,19.70
2019-05-02T12:49:42.406Z,19.10
2019-05-02T12:52:17.111Z,19.70
2019-05-02T12:54:48.805Z,19.40
2019-05-02T12:57:22.020Z,19.00
2019-05-02T12:59:52.805Z,18.90
2019-05-02T13:02:46.934Z,19.20
2019-05-02T13:05:18.910Z,19.30
2019-05-02T13:07:54.241Z,19.70
2019-05-02T13:10:42.295Z,20.10
2019-05-02T13:13:16.331Z,20.50
2019-05-02T13:15:51.717Z,20.30
2019-05-02T13:18:25.383Z,20.30
2019-05-02T13:20:54.331Z,20.00
2019-05-02T13:23:56.169Z,20.30
2019-05-02T13:26:27.408Z,20.70
2019-05-02T13:28:57.873Z,21.20
2019-05-02T13:31:53.499Z,21.60
2019-05-02T13:34:41.380Z,21.50
2019-05-02T13:37:13.264Z,20.60
2019-05-02T13:40:03.209Z,20.40
2019-05-02T13:42:39.438Z,20.40
2019-05-02T13:45:35.241Z,20.00
2019-05-02T13:48:12.094Z,19.60
2019-05-02T13:50:42.659Z,19.40
2019-05-02T13:53:13.762Z,19.40
2019-05-02T13:55:52.413Z,19.20
2019-05-02T13:58:28.786Z,19.10
2019-05-02T14:01:00.450Z,19.50
2019-05-02T14:03:36.933Z,19.50
2019-05-02T14:06:09.840Z,19.30
2019-05-02T14:08:47.085Z,19.50
2019-05-02T14:11:36.219Z,19.20
2019-05-02T14:14:07.570Z,19.30
2019-05-02T14:16:42.350Z,19.40
2019-05-02T14:19:16.718Z,19.00
2019-05-02T14:21:51.696Z,18.50
2019-05-02T14:24:29.790Z,18.00
2019-05-02T14:27:02.589Z,18.10
2019-05-02T14:29:46.993Z,18.20
2019-05-02T14:32:29.753Z,18.20
2019-05-02T14:35:24.140Z,18.20
2019-05-02T14:38:29.259Z,18.20
2019-05-02T14:41:24.911Z,18.30
2019-05-02T14:44:11.884Z,18.50
2019-05-02T14:46:48.229Z,18.70
2019-05-02T14:49:23.902Z,18.30
2019-05-02T14:52:03.037Z,18.10
2019-05-02T14:54:32.531Z,17.30
2019-05-02T14:57:27.090Z,17.10
2019-05-02T15:00:03.270Z,16.80
2019-05-02T15:02:56.758Z,16.70
2019-05-02T15:05:42.439Z,16.80
2019-05-02T15:08:17.664Z,16.70
2019-05-02T15:10:56.089Z,16.60
2019-05-02T15:13:32.291Z,16.70
2019-05-02T15:16:02.501Z,16.80
2019-05-02T15:18:57.037Z,16.80
2019-05-02T15:24:37.463Z,16.70
2019-05-02T15:27:12.057Z,16.80
2019-05-02T15:30:05.134Z,16.60
2019-05-02T15:32:57.643Z,16.50
2019-05-02T15:35:57.394Z,16.60
2019-05-02T15:38:28.296Z,16.70
2019-05-02T15:41:06.454Z,16.80
2019-05-02T15:43:39.376Z,16.80
2019-05-02T15:46:22.645Z,16.90
2019-05-02T15:48:51.997Z,16.90
2019-05-02T15:51:25.826Z,17.00
2019-05-02T15:54:06.052Z,17.10
2019-05-02T15:57:00.806Z,17.00
2019-05-02T15:59:46.019Z,16.70
2019-05-02T16:02:29.686Z,16.10
2019-05-02T16:05:02.345Z,15.80
2019-05-02T16:07:44.953Z,14.60
2019-05-02T16:10:16.908Z,13.20
2019-05-02T16:12:52.706Z,12.70
2019-05-02T16:15:26.921Z,12.60
2019-05-02T16:18:03.629Z,12.30
2019-05-02T16:20:48.823Z,12.20
2019-05-02T16:23:18.983Z,12.10
2019-05-02T16:25:52.403Z,12.00
2019-05-02T16:28:29.535Z,12.10
2019-05-02T16:31:01.677Z,12.10
2019-05-02T16:33:35.407Z,12.20
2019-05-02T16:36:38.572Z,12.40
2019-05-02T16:39:22.001Z,12.40
2019-05-02T16:45:30.331Z,12.50
2019-05-02T16:48:55.671Z,12.30
2019-05-02T16:51:35.877Z,12.20
2019-05-02T16:54:13.966Z,12.30
2019-05-02T16:56:52.156Z,12.30
2019-05-02T17:03:03.897Z,12.00
2019-05-02T17:06:01.553Z,12.10
2019-05-02T17:08:58.348Z,12.20
2019-05-02T17:11:47.601Z,12.20
2019-05-02T17:14:24.389Z,12.20
2019-05-02T17:19:54.823Z,12.30
2019-05-02T17:22:28.437Z,12.20
2019-05-02T17:25:05.901Z,12.00
2019-05-02T17:27:35.690Z,12.00
2019-05-02T17:30:43.301Z,12.00
2019-05-02T17:33:24.357Z,12.00
2019-05-02T17:36:02.141Z,12.00
2019-05-02T17:39:06.807Z,12.00
2019-05-02T17:41:48.132Z,12.10
2019-05-02T17:44:29.598Z,12.20
2019-05-02T17:47:01.924Z,12.10
2019-05-02T17:49:38.147Z,12.10
2019-05-02T17:52:26.993Z,12.30
2019-05-02T17:55:01.773Z,12.30
2019-05-02T17:57:37.522Z,12.40
2019-05-02T18:00:16.767Z,12.50
2019-05-02T18:03:04.846Z,12.50
2019-05-02T18:05:38.418Z,12.50
2019-05-02T18:08:21.977Z,12.40
2019-05-02T18:11:02.911Z,12.30
2019-05-02T18:13:47.029Z,12.30
2019-05-02T18:16:24.460Z,12.30
2019-05-02T18:19:01.917Z,12.30
2019-05-02T18:21:36.993Z,12.30
2019-05-02T18:24:22.177Z,12.20
2019-05-02T18:27:14.835Z,12.10
2019-05-02T18:29:51.711Z,12.00
2019-05-02T18:33:05.345Z,12.00
2019-05-02T18:36:03.446Z,12.00
2019-05-02T18:38:41.873Z,11.90
2019-05-02T18:41:17.333Z,11.90
2019-05-02T18:43:59.271Z,12.00
2019-05-02T18:46:29.911Z,12.00
2019-05-02T18:49:05.024Z,12.00
2019-05-02T18:51:48.364Z,12.10
2019-05-02T18:54:53.960Z,12.10
2019-05-02T18:58:03.798Z,12.10
2019-05-02T19:04:25.075Z,12.10
2019-05-02T19:06:59.276Z,12.10
2019-05-02T19:09:33.226Z,12.20
2019-05-02T19:12:19.357Z,12.20
2019-05-02T19:14:50.358Z,12.10
2019-05-02T19:17:25.126Z,12.10
2019-05-02T19:20:00.539Z,12.10
2019-05-02T19:22:57.437Z,12.10
2019-05-02T19:25:38.271Z,12.10
2019-05-02T19:31:36.815Z,12.20
2019-05-02T19:34:38.876Z,12.20
2019-05-02T19:37:27.886Z,12.30
2019-05-02T19:43:26.601Z,12.40
2019-05-02T19:46:34.606Z,12.40
2019-05-02T19:49:06.961Z,12.50
2019-05-02T19:51:43.558Z,12.40
2019-05-02T19:54:21.872Z,12.40
2019-05-02T19:57:05.462Z,12.40
2019-05-02T19:59:39.347Z,12.40
2019-05-02T20:02:23.009Z,12.40
2019-05-02T20:04:56.321Z,12.40
2019-05-02T20:07:28.705Z,12.40
2019-05-02T20:10:06.130Z,12.40
2019-05-02T20:12:48.092Z,12.40
2019-05-02T20:15:25.411Z,12.40
2019-05-02T20:17:55.289Z,12.40
2019-05-02T20:21:12.202Z,12.30
2019-05-02T20:23:49.084Z,12.20
2019-05-02T20:26:22.192Z,12.20
2019-05-02T20:28:57.579Z,12.20
2019-05-02T20:31:32.113Z,12.20
2019-05-02T20:34:03.543Z,12.10
2019-05-02T20:36:34.449Z,12.10
2019-05-02T20:39:19.066Z,12.10
2019-05-02T20:41:52.910Z,12.00
2019-05-02T20:44:38.340Z,12.00
2019-05-02T20:47:37.219Z,12.00
2019-05-02T20:50:31.777Z,12.00
2019-05-02T20:53:31.123Z,11.80
2019-05-02T20:56:12.379Z,11.70
2019-05-02T20:58:48.567Z,11.60
2019-05-02T21:01:24.666Z,11.50
2019-05-02T21:03:58.994Z,11.40
2019-05-02T21:06:47.436Z,11.40
2019-05-02T21:09:42.598Z,11.40
2019-05-02T21:12:18.730Z,11.40
2019-05-02T21:14:54.200Z,11.30
2019-05-02T21:17:42.215Z,11.30
2019-05-02T21:20:13.738Z,11.20
2019-05-02T21:22:49.359Z,11.10
2019-05-02T21:25:20.069Z,11.00
2019-05-02T21:27:52.233Z,11.00
2019-05-02T21:30:32.752Z,10.90
2019-05-02T21:33:03.756Z,10.80
2019-05-02T21:35:42.359Z,10.70
2019-05-02T21:42:36.279Z,10.60
2019-05-02T21:45:09.911Z,10.50
2019-05-02T21:48:07.129Z,10.50
2019-05-02T21:50:47.826Z,10.40
2019-05-02T21:53:55.136Z,10.30
2019-05-02T21:56:40.119Z,10.20
2019-05-02T21:59:13.824Z,10.10
2019-05-02T22:01:51.925Z,10.10
2019-05-02T22:04:24.937Z,9.90
2019-05-02T22:07:12.326Z,9.90
2019-05-02T22:09:46.507Z,9.90
2019-05-02T22:12:16.455Z,9.80
2019-05-02T22:14:50.329Z,9.80
2019-05-02T22:17:29.398Z,9.80
2019-05-02T22:20:06.769Z,9.70
2019-05-02T22:22:38.207Z,9.70
2019-05-02T22:25:08.430Z,9.60
2019-05-02T22:27:38.168Z,9.60
2019-05-02T22:30:08.820Z,9.60
2019-05-02T22:32:38.715Z,9.60
2019-05-02T22:35:09.001Z,9.60
2019-05-02T22:37:40.693Z,9.50
2019-05-02T22:40:13.529Z,9.50
2019-05-02T22:42:43.859Z,9.50
2019-05-02T22:45:14.604Z,9.50
2019-05-02T22:47:53.587Z,9.50
2019-05-02T22:50:23.534Z,9.60
2019-05-02T22:52:54.151Z,9.50
2019-05-02T22:55:24.076Z,9.40
2019-05-02T22:57:53.778Z,9.40
2019-05-02T23:00:23.711Z,9.40
2019-05-02T23:02:53.670Z,9.30
2019-05-02T23:05:23.370Z,9.30
2019-05-02T23:07:53.123Z,9.30
2019-05-02T23:10:24.944Z,9.30
2019-05-02T23:12:58.082Z,9.40
2019-05-02T23:15:28.302Z,9.30
2019-05-02T23:18:06.077Z,9.30
2019-05-02T23:20:36.108Z,9.20
2019-05-02T23:23:06.113Z,9.10
2019-05-02T23:26:07.300Z,9.10
2019-05-02T23:28:38.576Z,9.10
2019-05-02T23:31:11.449Z,9.20
2019-05-02T23:34:01.859Z,9.20
2019-05-02T23:36:45.226Z,9.20
2019-05-02T23:39:12.433Z,9.20
2019-05-02T23:41:48.444Z,9.30
2019-05-02T23:44:24.550Z,9.20
2019-05-02T23:46:58.608Z,9.20
2019-05-02T23:49:32.475Z,9.20
2019-05-02T23:52:02.742Z,9.30
2019-05-02T23:54:32.526Z,9.20
2019-05-02T23:57:02.286Z,9.20
2019-05-02T23:59:32.453Z,9.20
